Flight Track Log - Related Links

Times and Time Zones

All times are in EDT time to prevent confusion due to time zone crossing. See the FSR411 flight status page for this flight to view local times or setup timezone preferences in your user account.

Time Position Orientation Groundspeed Altitude Reporting Facility
EDT Latitude Longitude Course Direction KTS MPH feet Rate Location/Type
Wed 11:41:56 AM 39.8258 -89.7189 311° West 185 213 3,000  Level Chicago Center
Wed 11:42:57 AM 39.8539 -89.7831 300° West 258 297 6,600 3,677 Climbing Chicago Center
Wed 11:43:29 AM 39.8894 -89.8189 322° Northwest 254 292 8,700 3,830 Climbing Kansas City Center
Wed 11:44:31 AM 39.9556 -89.8867 322° Northwest 286 329 12,600 3,707 Climbing Kansas City Center
Wed 11:45:32 AM 40.0347 -89.9675 322° Northwest 341 392 16,300 3,744 Climbing Kansas City Center
Wed 11:46:36 AM 40.1181 -90.0553 321° Northwest 375 432 20,400 3,190 Climbing Kansas City Center
Wed 11:47:38 AM 40.2039 -90.1444 322° Northwest 385 443 23,000 2,016 Climbing Kansas City Center
Wed 11:48:00 AM 40.0678 -89.9017 311° West  Level FlightAware Approximate
Wed 11:48:38 AM 40.2956 -90.2383 322° Northwest 403 464 24,500  Level Kansas City Center
Wed 11:49:40 AM 40.3903 -90.3378 321° Northwest 423 487 27,400 2,758 Climbing Kansas City Center
Wed 11:50:42 AM 40.5025 -90.4572 321° Northwest 426 490 30,200 2,381 Climbing Kansas City Center
Wed 11:51:46 AM 40.5983 -90.5569 322° Northwest 432 497 32,400 1,824 Climbing Kansas City Center
Wed 11:52:47 AM 40.6919 -90.6558 321° Northwest 432 497 34,000 768 Climbing Kansas City Center
Wed 11:53:51 AM 40.7875 -90.7583 321° Northwest 436 502 34,000 96 Level Kansas City Center
Wed 11:54:52 AM 40.8828 -90.8592 321° Northwest 436 502 34,200 934 Climbing Kansas City Center
Wed 11:55:53 AM 40.9789 -90.9611 321° Northwest 437 503 35,900 725 Climbing Kansas City Center
Wed 11:57:21 AM 41.1319 -91.1269 321° Northwest 440 506 36,000 40 Climbing Chicago Center
Wed 11:58:23 AM 41.2300 -91.2331 321° Northwest 448 516 36,000  Level Chicago Center
Wed 11:59:24 AM 41.3300 -91.3411 321° Northwest 447 514 36,000  Level Chicago Center
Wed 12:00:26 PM 41.4256 -91.4447 321° Northwest 446 513 36,000  Level Chicago Center
Wed 12:01:28 PM 41.5219 -91.5503 321° Northwest 446 513 36,000  Level Chicago Center
Wed 12:02:29 PM 41.6167 -91.6544 321° Northwest 446 513 36,000  Level Chicago Center
Wed 12:03:31 PM 41.7117 -91.7594 320° Northwest 445 512 36,000  Level Chicago Center
Wed 12:04:33 PM 41.8069 -91.8644 321° Northwest 445 512 36,000 -48 Level Chicago Center
Wed 12:05:35 PM 41.9214 -91.9903 321° Northwest 445 512 35,900 -585 Descending Chicago Center
Wed 12:06:36 PM 42.0164 -92.0958 320° Northwest 445 512 34,800 -1,122 Descending Chicago Center
Wed 12:07:38 PM 42.1094 -92.2003 320° Northwest 440 506 33,600 -1,161 Descending Chicago Center
Wed 12:08:40 PM 42.2025 -92.3053 320° Northwest 438 504 32,400 -774 Descending Chicago Center
Wed 12:09:42 PM 42.2983 -92.4125 320° Northwest 442 509 32,000 -194 Descending Chicago Center
Wed 12:10:44 PM 42.3961 -92.5228 320° Northwest 454 522 32,000  Level Chicago Center
Wed 12:11:45 PM 42.4922 -92.6319 320° Northwest 454 522 32,000  Level Chicago Center
Wed 12:12:47 PM 42.6072 -92.7633 320° Northwest 453 521 32,000  Level Chicago Center
Wed 12:13:49 PM 42.7028 -92.8742 320° Northwest 451 519 32,000  Level Chicago Center
Wed 12:14:51 PM 42.7975 -92.9847 319° Northwest 451 519 32,000 -48 Level Chicago Center
Wed 12:15:53 PM 42.8942 -93.0908 321° Northwest 449 517 31,900 -726 Descending Chicago Center
Wed 12:16:55 PM 43.0150 -93.1531 339° North 461 531 30,500 -1,597 Descending Chicago Center
Wed 12:17:57 PM 43.1397 -93.2114 341° North 467 537 28,600 -2,226 Descending Chicago Center
Wed 12:18:59 PM 43.2886 -93.2833 341° North 473 544 25,900 -2,585 Descending Chicago Center
Wed 12:20:00 PM 43.4100 -93.3425 341° North 470 541 23,300 -2,439 Descending Chicago Center
Wed 12:21:02 PM 43.5258 -93.3850 345° North 451 519 20,900 -2,473 Descending Chicago Center
Wed 12:22:28 PM 43.7014 -93.3972 357° North 445 512 17,200 -2,432 Descending Minneapolis Center
Wed 12:23:30 PM 43.8142 -93.4117 355° North 423 487 14,900 -2,244 Descending Minneapolis Center
Wed 12:24:31 PM 43.9239 -93.4236 356° North 401 461 12,600 -2,195 Descending Minneapolis Center
Wed 12:25:33 PM 44.0467 -93.4386 355° North 367 422 10,400 -1,742 Descending Minneapolis Center
Wed 12:26:35 PM 44.1369 -93.4506 355° North 319 367 9,000 -1,161 Descending Minneapolis Center
Wed 12:27:37 PM 44.2244 -93.4606 355° North 316 364 8,000 -488 Descending Minneapolis Center
Wed 12:28:38 PM 44.3181 -93.4661 358° North 316 364 8,000  Level Minneapolis Center
Wed 12:29:40 PM 44.4053 -93.4842 352° North 316 364 8,000 -581 Level Minneapolis Center
Wed 12:30:42 PM 44.4906 -93.5036 351° North 313 360 6,800 -1,258 Descending Minneapolis Center
Wed 12:31:44 PM 44.5786 -93.5236 351° North 302 348 5,400 -1,317 Descending Minneapolis Center
Wed 12:32:45 PM 44.6572 -93.5214 North 284 327 4,100 -683 Descending Minneapolis Center
Wed 12:33:47 PM 44.7281 -93.4972 14° North 266 306 4,000 -48 Descending Minneapolis Center
Wed 12:34:49 PM 44.7894 -93.4364 35° Northeast 254 292 4,000  Level Minneapolis Center
Wed 12:35:51 PM 44.8319 -93.3644 50° Northeast 241 277 4,000  Level Minneapolis Center
Wed 12:36:53 PM 44.8750 -93.2944 49° Northeast 240 276 4,000  Level Minneapolis Center
Wed 12:37:55 PM 44.9214 -93.2258 46° Northeast 225 259 4,000 -484 Level Minneapolis Center
Wed 12:38:57 PM 44.9592 -93.1644 49° Northeast 212 244 3,000 -976 Descending Minneapolis Center
Wed 12:39:58 PM 44.9689 -93.1111 76° East 143 165 2,000 -976 Descending Minneapolis Center
Wed 12:41:00 PM 44.9478 -93.0717 127° Southeast 124 143 1,000 -968 Descending Minneapolis Center

Login

Don't have an account? Register now (free) for customized features, flight alerts, and more!